• Join FlightAware (Why Join?)
  • Login
  • US Flag 
09:16AM EDT


 

Airport Tracker/Info


-or-


 

Live Flight TrackerFlight Track Log ✈ AAY230 ✈ 05-Jul-2013 ✈ KLAX - KBLI

Flight Track Log - Related Links

Times and Time Zones

All times are in EDT time to prevent confusion due to time zone crossing. See the AAY230 flight status page for this flight to view local times or setup timezone preferences in your user account.

Time Position Orientation Groundspeed Altitude Reporting Facility
EDT Latitude Longitude Course Direction KTS MPH feet Rate Location/Type
08:09PM 33.9500 -118.5000 350° North 222 255 2,300  Level Southern California TRACON
08:10PM 33.9369 -118.5819 259° West 257 296 4,900 2,580 Climbing Los Angeles Center
08:11PM 33.9533 -118.6656 283° West 278 320 7,400 1,980 Climbing Los Angeles Center
08:12PM 34.0242 -118.7111 332° Northwest 290 334 9,000 720 Climbing Los Angeles Center
08:13PM 34.0967 -118.6622 29° Northeast 304 350 8,900 300 Descending Los Angeles Center
08:14PM 34.1714 -118.6692 356° North 298 343 9,700 1,260 Climbing Los Angeles Center
08:15PM 34.0584 -118.4339 350° North  Level Estimated
08:15PM 34.2761 -118.6853 353° North 316 364 11,600  Level Los Angeles Center
08:16PM 34.3836 -118.7014 353° North 383 441 13,200 1,740 Climbing Los Angeles Center
08:17PM 34.4956 -118.7208 352° North 406 467 15,200 1,800 Climbing Los Angeles Center
08:18PM 34.6072 -118.7639 342° North 425 489 17,000 1,680 Climbing Los Angeles Center
08:19PM 34.7222 -118.8233 337° Northwest 448 516 18,700 1,920 Climbing Los Angeles Center
08:20PM 34.8386 -118.8786 339° North 450 518 21,000 1,800 Climbing Los Angeles Center
08:22PM 34.9786 -118.9239 345° North 462 532 22,500 1,560 Climbing Los Angeles Center
08:23PM 35.1044 -118.9656 345° North 469 540 24,300 1,920 Climbing Los Angeles Center
08:24PM 35.2292 -119.0083 344° North 468 539 26,500 1,200 Climbing Los Angeles Center
08:25PM 35.3531 -119.0525 344° North 466 536 26,900 720 Climbing Los Angeles Center
08:26PM 35.4811 -119.0942 345° North 472 543 28,000 480 Climbing Los Angeles Center
08:27PM 35.6367 -119.1178 353° North 468 539 28,000 -60 Level Los Angeles Center
08:28PM 35.7703 -119.1342 354° North 477 549 27,900 -60 Descending Los Angeles Center
08:29PM 35.9047 -119.1528 354° North 484 557 27,900  Level Los Angeles Center
08:29PM 35.9831 -119.1617 355° North 486 559 27,900 60 Level Oakland Center
08:30PM 36.1142 -119.1783 354° North 481 554 28,000  Climbing Oakland Center
08:31PM 36.2453 -119.1956 354° North 477 549 27,900 -60 Descending Oakland Center
08:32PM 36.3792 -119.2142 354° North 482 555 27,900  Level Oakland Center
08:33PM 36.5131 -119.2317 354° North 485 558 28,000  Climbing Oakland Center
08:34PM 36.6450 -119.2494 354° North 478 550 27,900  Descending Oakland Center
08:35PM 36.7764 -119.2678 354° North 475 547 28,000  Climbing Oakland Center
08:36PM 36.9056 -119.2850 354° North 470 541 28,000 -60 Level Oakland Center
08:37PM 37.0369 -119.3008 355° North 475 547 27,900  Descending Oakland Center
08:38PM 37.1942 -119.3233 353° North 476 548 28,000  Climbing Oakland Center
08:39PM 37.3267 -119.3397 354° North 479 551 27,900  Descending Oakland Center
08:40PM 37.4564 -119.3572 354° North 472 543 28,000  Climbing Oakland Center
08:41PM 37.5886 -119.3758 354° North 476 548 28,000  Level Oakland Center
08:42PM 37.7108 -119.3933 354° North 478 550 28,000  Level Oakland Center
08:43PM 37.8428 -119.4136 353° North 477 549 28,000  Level Oakland Center
08:45PM 37.9722 -119.4308 354° North 472 543 28,000  Level Oakland Center
08:46PM 38.1289 -119.4525 354° North 472 543 28,000  Level Oakland Center
08:47PM 38.2569 -119.4697 354° North 467 537 28,000  Level Oakland Center
08:48PM 38.3836 -119.4875 354° North 460 529 28,000  Level Oakland Center
08:49PM 38.5028 -119.5036 354° North 458 527 28,000  Level Oakland Center
08:50PM 38.6306 -119.5225 353° North 462 532 28,000  Level Oakland Center
08:51PM 38.7586 -119.5408 354° North 461 531 28,000  Level Oakland Center
08:52PM 38.8864 -119.5589 354° North 460 529 28,000  Level Oakland Center
08:53PM 39.0153 -119.5772 354° North 463 533 28,000  Level Oakland Center
08:54PM 39.1708 -119.6006 353° North 466 536 28,000  Level Oakland Center
08:55PM 39.3008 -119.6203 353° North 467 537 28,000  Level Oakland Center
08:56PM 39.4308 -119.6386 354° North 466 536 28,000  Level Oakland Center
08:57PM 39.5594 -119.6597 353° North 464 534 28,000  Level Oakland Center
08:58PM 39.6844 -119.6933 348° North 459 528 28,000  Level Oakland Center
08:59PM 39.8075 -119.7286 348° North 451 519 28,000  Level Oakland Center
09:00PM 39.9331 -119.7650 347° North 458 527 28,000  Level Oakland Center
09:01PM 40.0592 -119.8008 348° North 463 533 28,000  Level Oakland Center
09:02PM 40.1850 -119.8372 348° North 462 532 28,000  Level Oakland Center
09:03PM 40.3106 -119.8714 348° North 459 528 28,000  Level Oakland Center
09:04PM 40.4361 -119.9081 347° North 461 531 28,000  Level Oakland Center
09:05PM 40.5692 -119.9464 348° North 462 532 28,000  Level Oakland Center
09:06PM 40.6928 -119.9814 348° North 457 526 28,000  Level Oakland Center
09:07PM 40.8175 -120.0175 348° North 459 528 28,000  Level Oakland Center
09:08PM 40.9414 -120.0525 348° North 458 527 28,000  Level Oakland Center
09:09PM 41.0642 -120.0878 348° North 454 522 28,000  Level Oakland Center
09:10PM 41.2122 -120.1294 348° North 456 525 28,000  Level Oakland Center
09:11PM 41.3375 -120.1639 348° North 459 528 28,000  Level Oakland Center
09:12PM 41.4614 -120.1997 348° North 458 527 28,000  Level Oakland Center
09:13PM 41.5833 -120.2353 348° North 451 519 28,000  Level Oakland Center
09:14PM 41.7067 -120.2703 348° North 454 522 28,000  Level Oakland Center
09:15PM 41.8292 -120.3067 348° North 452 520 28,000  Level Oakland Center
09:16PM 41.9531 -120.3431 348° North 455 524 28,000  Level Oakland Center
09:17PM 42.1217 -120.3958 347° North 449 517 28,000  Level Seattle Center
09:18PM 42.2428 -120.4308 348° North 447 514 28,000  Level Seattle Center
09:20PM 42.3647 -120.4661 348° North 450 518 28,000  Level Seattle Center
09:21PM 42.4864 -120.5025 348° North 450 518 28,000  Level Seattle Center
09:22PM 42.6097 -120.5397 347° North 455 524 28,000  Level Seattle Center
09:23PM 42.7314 -120.5750 348° North 451 519 28,000  Level Seattle Center
09:24PM 42.8506 -120.6131 347° North 444 511 28,000  Level Seattle Center
09:25PM 42.9947 -120.6558 348° North 443 510 28,000  Level Seattle Center
09:26PM 43.1150 -120.6931 347° North 444 511 28,000  Level Seattle Center
09:27PM 43.2356 -120.7303 347° North 446 513 28,000  Level Seattle Center
09:28PM 43.3558 -120.7650 348° North 443 510 28,000  Level Seattle Center
09:29PM 43.4758 -120.8017 347° North 443 510 28,000  Level Seattle Center
09:30PM 43.5833 -120.8331 348° North 441 507 28,000  Level Seattle Center
09:31PM 43.7269 -120.8778 347° North 442 509 28,000  Level Seattle Center
09:32PM 43.8464 -120.9150 347° North 442 509 28,000  Level Seattle Center
09:33PM 43.9650 -120.9500 348° North 437 503 28,000  Level Seattle Center
09:34PM 44.0839 -120.9875 347° North 436 502 28,000  Level Seattle Center
09:35PM 44.2039 -121.0256 347° North 440 506 28,000  Level Seattle Center
09:36PM 44.3236 -121.0628 347° North 442 509 28,000  Level Seattle Center
09:37PM 44.4369 -121.0981 347° North 440 506 28,000  Level Seattle Center
09:38PM 44.5531 -121.1358 347° North 435 501 28,000  Level Seattle Center
09:39PM 44.6775 -121.1756 347° North 433 498 28,000  Level Seattle Center
09:40PM 44.7953 -121.2131 347° North 433 498 28,000  Level Seattle Center
09:41PM 44.9136 -121.2508 347° North 435 501 28,000  Level Seattle Center
09:42PM 45.0325 -121.2892 347° North 435 501 28,000  Level Seattle Center
09:43PM 45.1494 -121.3267 347° North 433 498 28,000  Level Seattle Center
09:44PM 45.2672 -121.3642 347° North 433 498 28,000  Level Seattle Center
09:45PM 45.3836 -121.4036 347° North 432 497 28,000  Level Seattle Center
09:46PM 45.5014 -121.4417 347° North 432 497 28,000  Level Seattle Center
09:47PM 45.6422 -121.4858 348° North 433 498 28,000  Level Seattle Center
09:48PM 45.7589 -121.5244 347° North 430 495 28,000  Level Seattle Center
09:49PM 45.8767 -121.5617 348° North 431 496 28,000  Level Seattle Center
09:50PM 45.9925 -121.6019 346° North 430 495 28,000  Level Seattle Center
09:51PM 46.1094 -121.6408 347° North 431 496 28,000  Level Seattle Center
09:52PM 46.2247 -121.6781 347° North 430 495 28,000  Level Seattle Center
09:53PM 46.3383 -121.7186 346° North 427 491 28,000  Level Seattle Center
09:54PM 46.4542 -121.7567 347° North 428 493 28,000  Level Seattle Center
09:55PM 46.5672 -121.7964 346° North 424 488 28,000  Level Seattle Center
09:56PM 46.6819 -121.8347 347° North 426 490 28,000  Level Seattle Center
09:57PM 46.8183 -121.8814 347° North 424 488 28,000  Level Seattle Center
09:58PM 46.9331 -121.9214 347° North 428 493 28,000  Level Seattle Center
09:59PM 47.0453 -121.9625 346° North 422 486 28,000  Level Seattle Center
10:00PM 47.1592 -122.0006 347° North 425 489 28,000  Level Seattle Center
10:01PM 47.2725 -122.0392 347° North 424 488 28,000  Level Seattle Center
10:02PM 47.3842 -122.0803 346° North 423 487 28,000 -660 Level Seattle Center
10:03PM 47.4950 -122.1194 347° North 417 480 26,700 -1,800 Descending Seattle Center
10:04PM 47.6211 -122.1642 347° North 401 461 24,400 -2,160 Descending Seattle Center
10:05PM 47.7208 -122.1986 347° North 382 440 22,400 -1,920 Descending Seattle Center
10:06PM 47.8172 -122.2333 346° North 368 423 20,500 -1,980 Descending Seattle Center
10:07PM 47.8975 -122.2639 346° North 352 405 18,800 -2,160 Descending Seattle Center
10:08PM 47.9422 -122.2811 346° North 345 397 17,700 -1,860 Descending Seattle Center
10:08PM 48.0019 -122.2978 349° North 343 395 16,600 -1,740 Descending Seattle Center
10:09PM 48.0914 -122.3239 349° North 331 381 14,700 -2,160 Descending Seattle Center
10:10PM 48.1967 -122.3544 349° North 323 372 12,300 -1,740 Descending Seattle Center
10:11PM 48.2778 -122.3814 348° North 302 348 11,200 -1,440 Descending Seattle Center
10:12PM 48.3539 -122.4064 348° North 284 327 9,400 -1,680 Descending Seattle Center
10:13PM 48.4281 -122.4319 347° North 277 319 7,900 -1,440 Descending Seattle Center
10:14PM 48.4947 -122.4803 334° Northwest 269 310 6,500 -1,500 Descending Seattle Center
10:15PM 48.5581 -122.5239 336° Northwest 260 299 4,900 -1,380 Descending Seattle Center
10:16PM 48.6178 -122.5394 350° North 238 274 3,700 -1,200 Descending Seattle Center
10:17PM 48.6731 -122.5358 North 216 249 2,500 -1,200 Descending Seattle Center